Souris, Canada
Current Conditions -  °F | °C
As of 7:00 PM on Friday 28 Nov 2014 (Local Time) from CYYG Reporting Station
Broken Clouds Broken Clouds  
Wind Chill: 15°   Ceiling: 3900
Heat Index: 25°   Visibility: 15mi
Dew Point: 19°   Wind: 9mph
Humidity: 80%   Direction: 300°WNW
Pressure: 29.94"   Gusts: NA
Location:  46.35°N, 62.25°W
Report Text: CYYG 282300Z 30008KT 15SM BKN039 M04/M07 A2994 RMK SC7 SLP141
Loading
Personal Weather Stations






























Interactive Weather Map New forecast layout! Learn more

10-Day Weather Forecast

Advertisements
Track Severe Weather on mobile